Flight Track Log - Related Links

Times and Time Zones

All times are in EST time to prevent confusion due to time zone crossing. See the UAL4180 flight status page for this flight to view local times or setup timezone preferences in your user account.

Time Position Orientation Groundspeed Altitude Reporting Facility
EST Latitude Longitude Course Direction KTS MPH feet Rate Location/Type
Wed 10:47:56 PM 29.9639 -95.3433 97° East 151 174 600  Level Houston Center
Wed 10:48:44 PM 29.9356 -95.3106 135° Southeast 197 227 1,900 1,636 Climbing Houston Center
Wed 10:49:02 PM 29.9233 -95.2967 135° Southeast 239 275 2,400 2,182 Climbing Houston Center
Wed 10:49:39 PM 29.8950 -95.2575 130° Southeast 261 300 3,900 2,557 Climbing Houston Center
Wed 10:50:03 PM 29.8792 -95.2331 127° Southeast 245 282 5,000 2,656 Climbing Houston Center
Wed 10:50:40 PM 29.8728 -95.1761 97° East 282 325 6,600 2,656 Climbing Houston Center
Wed 10:51:04 PM 29.8722 -95.1431 91° East 283 326 7,700 2,656 Climbing Houston Center
Wed 10:51:41 PM 29.8725 -95.0844 90° East 294 338 9,300 2,262 Climbing Houston Center
Wed 10:52:00 PM 29.8930 -94.6032 97° East  Level FlightAware Approximate
Wed 10:52:05 PM 29.8714 -95.0472 92° East 295 339 10,000  Level Houston Center
Wed 10:52:42 PM 29.8703 -94.9714 91° East 365 420 10,500 1,065 Climbing Houston Center
Wed 10:53:00 PM 29.8768 -94.4569 97° East  Level FlightAware Approximate
Wed 10:53:07 PM 29.8703 -94.9325 90° East 356 410 11,100  Level Houston Center
Wed 10:54:08 PM 29.8683 -94.8103 91° East 375 432 13,200 2,115 Climbing Houston Center
Wed 10:55:09 PM 29.8672 -94.6886 91° East 376 433 15,400 1,721 Climbing Houston Center
Wed 10:56:10 PM 29.8661 -94.5619 91° East 390 449 16,700 1,328 Climbing Houston Center
Wed 10:57:11 PM 29.8742 -94.4303 86° East 409 471 18,100 1,512 Climbing Houston Center
Wed 10:58:13 PM 29.8978 -94.3008 78° East 412 474 19,800 1,756 Climbing Houston Center
Wed 10:59:14 PM 29.9200 -94.1658 79° East 413 475 21,700 1,869 Climbing Houston Center
Wed 11:00:15 PM 29.9403 -94.0356 80° East 413 475 23,600 2,066 Climbing Houston Center
Wed 11:01:16 PM 29.9647 -93.8858 79° East 411 473 25,900 1,967 Climbing Houston Center
Wed 11:02:17 PM 29.9844 -93.7578 80° East 402 463 27,600 1,426 Climbing Houston Center
Wed 11:03:18 PM 30.0008 -93.6586 79° East 399 459 28,800 1,475 Climbing Houston Center
Wed 11:04:19 PM 30.0242 -93.5094 80° East 399 459 30,600 1,574 Climbing Houston Center
Wed 11:05:20 PM 30.0433 -93.3858 80° East 399 459 32,000 1,220 Climbing Houston Center
Wed 11:06:22 PM 30.0625 -93.2614 80° East 398 458 33,100 1,024 Climbing Houston Center
Wed 11:07:23 PM 30.0825 -93.1344 80° East 402 463 34,100 885 Climbing Houston Center
Wed 11:08:24 PM 30.1019 -93.0064 80° East 405 466 34,900 443 Climbing Houston Center
Wed 11:09:25 PM 30.1214 -92.8733 80° East 417 480 35,000 49 Climbing Houston Center
Wed 11:10:26 PM 30.1475 -92.7011 80° East 448 516 35,000  Level Houston Center
Wed 11:11:27 PM 30.1703 -92.5483 80° East 473 544 35,000  Level Houston Center
Wed 11:12:28 PM 30.1936 -92.3925 80° East 490 564 35,000  Level Houston Center
Wed 11:13:29 PM 30.2156 -92.2503 80° East 497 572 35,000  Level Houston Center
Wed 11:14:30 PM 30.2389 -92.0914 80° East 504 580 35,000  Level Houston Center
Wed 11:15:31 PM 30.2656 -91.8989 81° East 505 581 35,000  Level Houston Center
Wed 11:16:32 PM 30.2914 -91.7383 79° East 507 583 35,000  Level Houston Center
Wed 11:17:33 PM 30.3233 -91.5853 76° East 515 593 35,000  Level Houston Center
Wed 11:18:34 PM 30.3575 -91.4236 76° East 517 595 35,000  Level Houston Center
Wed 11:19:35 PM 30.3933 -91.2639 75° East 516 594 35,000  Level Houston Center
Wed 11:20:36 PM 30.4264 -91.1056 76° East 509 586 35,000  Level Houston Center
Wed 11:21:37 PM 30.4622 -90.9489 75° East 506 582 35,000  Level Houston Center
Wed 11:22:38 PM 30.4953 -90.7922 76° East 501 577 35,000  Level Houston Center
Wed 11:23:39 PM 30.5275 -90.6364 76° East 501 577 35,000  Level Houston Center
Wed 11:24:39 PM 30.5600 -90.4811 76° East 495 570 35,000  Level Houston Center
Wed 11:25:40 PM 30.6000 -90.2939 76° East 496 571 35,000  Level Houston Center
Wed 11:26:41 PM 30.6314 -90.1367 77° East 496 571 35,000  Level Houston Center
Wed 11:27:42 PM 30.6636 -89.9772 77° East 499 574 35,000  Level Houston Center
Wed 11:28:43 PM 30.6972 -89.8189 76° East 499 574 35,000  Level Houston Center
Wed 11:29:44 PM 30.7297 -89.6589 77° East 500 575 35,000  Level Houston Center
Wed 11:30:44 PM 30.7619 -89.5008 77° East 500 575 35,000  Level Houston Center
Wed 11:31:45 PM 30.7933 -89.3417 77° East 500 575 35,000  Level Houston Center
Wed 11:32:46 PM 30.8247 -89.1819 77° East 502 578 35,000  Level Houston Center
Wed 11:33:47 PM 30.8583 -89.0236 76° East 503 579 35,000  Level Houston Center
Wed 11:34:48 PM 30.8892 -88.8569 78° East 505 581 35,000  Level Houston Center
Wed 11:35:48 PM 30.9203 -88.6981 77° East 505 581 35,000  Level Houston Center
Wed 11:36:49 PM 30.9503 -88.5419 77° East 507 583 35,000  Level Houston Center
Wed 11:37:50 PM 30.9811 -88.3814 77° East 508 585 35,000  Level Houston Center
Wed 11:38:51 PM 31.0111 -88.2186 78° East 509 586 35,000 -50 Level Houston Center
Wed 11:39:51 PM 31.0436 -88.0581 77° East 510 587 34,900 149 Descending Houston Center
Wed 11:40:52 PM 31.0728 -87.9003 78° East 503 579 35,300 934 Climbing Houston Center
Wed 11:41:53 PM 31.1042 -87.7300 78° East 481 554 36,800 843 Climbing Houston Center
Wed 11:42:53 PM 31.1333 -87.5819 77° East 472 543 37,000 99 Climbing Houston Center
Wed 11:43:54 PM 31.1628 -87.4258 78° East 487 560 37,000  Level Houston Center
Wed 11:44:55 PM 31.1933 -87.2631 78° East 506 582 37,000  Level Houston Center
Wed 11:45:55 PM 31.2225 -87.0967 78° East 520 598 37,000  Level Houston Center
Wed 11:46:56 PM 31.2528 -86.9308 78° East 520 598 37,000  Level Houston Center
Wed 11:47:57 PM 31.2822 -86.7681 78° East 519 597 37,000  Level Houston Center
Wed 11:48:57 PM 31.3083 -86.6031 79° East 515 593 37,000  Level Houston Center
Wed 11:49:58 PM 31.3294 -86.4392 81° East 512 589 37,000  Level Houston Center
Wed 11:50:58 PM 31.3408 -86.2711 85° East 513 590 37,000  Level Houston Center
Wed 11:52:19 PM 31.3550 -86.0356 86° East 513 590 37,000  Level Jacksonville Center
Wed 11:53:19 PM 31.3653 -85.8681 86° East 518 596 37,000  Level Jacksonville Center
Wed 11:54:19 PM 31.3756 -85.7031 86° East 512 589 37,000  Level Jacksonville Center
Wed 11:55:19 PM 31.3872 -85.5378 85° East 512 589 37,000  Level Jacksonville Center
Wed 11:56:19 PM 31.3969 -85.3703 86° East 512 589 37,000  Level Jacksonville Center
Wed 11:57:19 PM 31.4064 -85.2025 86° East 512 589 37,000  Level Jacksonville Center
Wed 11:58:19 PM 31.4153 -85.0542 86° East 517 595 37,000  Level Jacksonville Center
Wed 11:59:19 PM 31.4283 -84.8867 85° East 517 595 37,000  Level Jacksonville Center
Thu 12:00:19 AM 31.4331 -84.7211 88° East 517 595 37,000 -250 Level Jacksonville Center
Thu 12:01:19 AM 31.4436 -84.5558 86° East 517 595 36,500 -750 Descending Jacksonville Center
Thu 12:02:19 AM 31.4519 -84.3878 87° East 517 595 35,500 -1,000 Descending Jacksonville Center
Thu 12:03:19 AM 31.4600 -84.2272 87° East 512 589 34,500 -950 Descending Jacksonville Center
Thu 12:04:19 AM 31.4681 -84.0642 87° East 502 578 33,600 -950 Descending Jacksonville Center
Thu 12:05:19 AM 31.4756 -83.8986 87° East 502 578 32,600 -950 Descending Jacksonville Center
Thu 12:06:19 AM 31.4831 -83.7306 87° East 502 578 31,700 -950 Descending Jacksonville Center
Thu 12:07:19 AM 31.4903 -83.5625 87° East 502 578 30,700 -950 Descending Jacksonville Center
Thu 12:08:19 AM 31.4994 -83.3969 86° East 502 578 29,800 -1,050 Descending Jacksonville Center
Thu 12:09:19 AM 31.5083 -83.2094 87° East 520 598 28,600 -1,100 Descending Jacksonville Center
Thu 12:10:19 AM 31.5339 -83.0436 80° East 520 598 27,600 -1,000 Descending Jacksonville Center
Thu 12:11:19 AM 31.5883 -82.8853 68° East 520 598 26,600 -1,210 Descending Jacksonville Center
Thu 12:12:18 AM 31.6425 -82.7267 68° East 515 593 25,200 -1,462 Descending Jacksonville Center
Thu 12:13:18 AM 31.6900 -82.5728 70° East 514 592 23,700 -1,350 Descending Jacksonville Center
Thu 12:14:18 AM 31.7128 -82.4531 77° East 494 568 22,500 -1,550 Descending Jacksonville Center
Thu 12:15:18 AM 31.7683 -82.2817 69° East 469 540 20,600 -1,750 Descending Jacksonville Center
Thu 12:16:18 AM 31.8281 -82.1394 64° Northeast 469 540 19,000 -1,750 Descending Jacksonville Center
Thu 12:17:18 AM 31.8817 -82.0289 60° Northeast 450 518 17,100 -2,100 Descending Jacksonville Center
Thu 12:18:18 AM 31.9603 -81.9081 52° Northeast 422 486 14,800 -2,100 Descending Jacksonville Center
Thu 12:19:18 AM 32.0283 -81.8119 50° Northeast 383 441 12,900 -1,900 Descending Jacksonville Center
Thu 12:20:18 AM 32.0861 -81.7378 47° Northeast 360 414 11,000 -2,050 Descending Jacksonville Center
Thu 12:21:18 AM 32.1417 -81.6461 54° Northeast 320 368 8,800 -1,500 Descending Jacksonville Center
Thu 12:22:18 AM 32.1386 -81.5628 92° East 278 320 8,000 -600 Descending Jacksonville Center
Thu 12:23:18 AM 32.1419 -81.4842 87° East 234 269 7,600 -1,100 Descending Jacksonville Center
Thu 12:24:18 AM 32.1944 -81.5006 345° North 142 163 5,800 -1,750 Descending Jacksonville Center
Thu 12:25:18 AM 32.2325 -81.5564 309° West 182 209 4,100 -1,450 Descending Jacksonville Center
Thu 12:26:18 AM 32.1825 -81.5647 188° South 154 177 2,900 -1,050 Descending Jacksonville Center
Thu 12:27:18 AM 32.1464 -81.5111 128° Southeast 172 198 2,000 -450 Descending Jacksonville Center
Thu 12:28:18 AM 32.1292 -81.4475 108° East 190 219 2,000 -50 Level Jacksonville Center
Thu 12:29:18 AM 32.1283 -81.3839 91° East 190 219 1,900 -100 Descending Jacksonville Center
Thu 12:30:18 AM 32.1297 -81.3225 88° East 190 219 1,800 -350 Descending Jacksonville Center
Thu 12:31:18 AM 32.1272 -81.2883 95° East 143 165 1,200 -650 Descending Jacksonville Center
Thu 12:32:18 AM 32.1267 -81.2464 91° East 123 142 500 -700 Descending Jacksonville Center

Login

Don't have an account? Register now (free) for customized features, flight alerts, and more!